Time;durP1;ratioP1;P1;durP2;ratioP2;P2;SDS_P1;SDS_P2;PMS_P1;PMS_P2;Temp;Humidity;BMP_temperature;BMP_pressure;BME280_temperature;BME280_humidity;BME280_pressure;Samples;Min_cycle;Max_cycle;Signal;HPM_P1;HPM_P2
2023/05/21 00:00:27;;;;;;;;;;;14.10;79.90;;;;;;5053075;28;19936;-78
2023/05/21 00:02:53;;;;;;;;;;;14.10;78.90;;;;;;5052734;28;19908;-77
2023/05/21 00:05:20;;;;;;;;;;;14.20;79.20;;;;;;5054666;28;19909;-78
2023/05/21 00:07:45;;;;;;;;;;;14.10;78.90;;;;;;5050518;28;19917;-78
2023/05/21 00:10:11;;;;;;;;;;;14.00;79.00;;;;;;5054044;28;19974;-78
2023/05/21 00:12:37;;;;;;;;;;;13.90;79.20;;;;;;5054895;28;19979;-77
2023/05/21 00:15:02;;;;;;;;;;;14.00;79.40;;;;;;5051441;28;19916;-78
2023/05/21 00:17:28;;;;;;;;;;;14.10;78.60;;;;;;5052195;28;19952;-78
2023/05/21 00:19:55;;;;;;;;;;;14.10;78.70;;;;;;5051675;28;19935;-78
2023/05/21 00:22:21;;;;;;;;;;;14.10;78.90;;;;;;5052037;28;20528;-77
2023/05/21 00:24:46;;;;;;;;;;;14.00;79.30;;;;;;5048013;28;19999;-77
2023/05/21 00:27:12;;;;;;;;;;;14.00;79.60;;;;;;5050423;28;19923;-78
2023/05/21 00:29:38;;;;;;;;;;;13.90;79.90;;;;;;5052696;28;19909;-78
2023/05/21 00:32:03;;;;;;;;;;;13.90;79.80;;;;;;5051455;28;19913;-78
2023/05/21 00:34:29;;;;;;;;;;;14.10;78.70;;;;;;5051176;28;19936;-78
2023/05/21 00:36:54;;;;;;;;;;;14.10;78.70;;;;;;5053095;28;19909;-78
2023/05/21 00:39:20;;;;;;;;;;;14.00;79.10;;;;;;5051073;28;20005;-78
2023/05/21 00:41:48;;;;;;;;;;;14.00;79.00;;;;;;5053421;28;20356;-78
2023/05/21 00:44:15;;;;;;;;;;;14.00;78.90;;;;;;5051673;28;19913;-77
2023/05/21 00:46:42;;;;;;;;;;;14.10;78.50;;;;;;5048705;28;19917;-77
2023/05/21 00:49:09;;;;;;;;;;;14.00;79.20;;;;;;5050971;28;19912;-77
2023/05/21 00:51:34;;;;;;;;;;;14.00;79.40;;;;;;5049566;28;19909;-77
2023/05/21 00:54:00;;;;;;;;;;;13.90;79.30;;;;;;5046836;28;19916;-77
2023/05/21 00:56:26;;;;;;;;;;;13.80;79.60;;;;;;5049190;28;19963;-77
2023/05/21 00:58:52;;;;;;;;;;;13.80;79.90;;;;;;5051305;28;19909;-77
2023/05/21 01:01:18;;;;;;;;;;;13.80;80.00;;;;;;5050852;28;19913;-78
2023/05/21 01:03:43;;;;;;;;;;;13.90;79.10;;;;;;5050998;28;19992;-78
2023/05/21 01:06:09;;;;;;;;;;;13.80;79.30;;;;;;5052278;28;19917;-78
2023/05/21 01:08:36;;;;;;;;;;;13.70;79.90;;;;;;5053566;28;19915;-78
2023/05/21 01:11:02;;;;;;;;;;;13.80;79.60;;;;;;5082796;23;19934;-84
2023/05/21 01:13:28;;;;;;;;;;;13.80;79.80;;;;;;5039482;28;19917;-86
2023/05/21 01:15:54;;;;;;;;;;;13.80;79.50;;;;;;5022631;28;19909;-85
2023/05/21 01:18:20;;;;;;;;;;;13.80;79.60;;;;;;5034856;28;19913;-85
2023/05/21 01:20:49;;;;;;;;;;;13.70;79.80;;;;;;5023821;28;19963;-85
2023/05/21 01:23:17;;;;;;;;;;;13.70;79.80;;;;;;5024329;28;19909;-85
2023/05/21 01:25:43;;;;;;;;;;;13.70;80.20;;;;;;5023040;28;19909;-85
2023/05/21 01:28:09;;;;;;;;;;;13.70;80.30;;;;;;5023836;28;19915;-85
2023/05/21 01:30:35;;;;;;;;;;;13.60;80.20;;;;;;5024148;28;19909;-86
2023/05/21 01:33:03;;;;;;;;;;;13.70;80.00;;;;;;5040787;28;19939;-85
2023/05/21 01:35:31;;;;;;;;;;;13.70;80.10;;;;;;5026502;28;20398;-85
2023/05/21 01:38:02;;;;;;;;;;;13.70;80.20;;;;;;5024380;28;19913;-85
2023/05/21 01:40:28;;;;;;;;;;;13.70;80.20;;;;;;5045362;28;19948;-85
2023/05/21 01:42:53;;;;;;;;;;;13.80;80.30;;;;;;5026757;28;19913;-85
2023/05/21 01:45:20;;;;;;;;;;;13.80;79.80;;;;;;5015009;28;19913;-87
2023/05/21 01:47:48;;;;;;;;;;;13.60;80.40;;;;;;5014873;28;19989;-87
2023/05/21 01:50:14;;;;;;;;;;;13.70;80.70;;;;;;5018154;28;20367;-84
2023/05/21 01:52:53;;;;;;;;;;;13.60;80.50;;;;;;5041225;28;19932;-85
2023/05/21 01:55:23;;;;;;;;;;;13.60;80.80;;;;;;5041800;28;19910;-85
2023/05/21 01:57:52;;;;;;;;;;;13.70;80.40;;;;;;5023762;28;19921;-84
2023/05/21 02:00:19;;;;;;;;;;;13.60;80.50;;;;;;5027744;28;19921;-85
2023/05/21 02:02:44;;;;;;;;;;;13.60;80.50;;;;;;5031383;28;19963;-84
2023/05/21 02:05:10;;;;;;;;;;;13.60;80.90;;;;;;5037778;28;19921;-85
2023/05/21 02:07:36;;;;;;;;;;;13.50;80.70;;;;;;5052924;28;19923;-86
2023/05/21 02:10:01;;;;;;;;;;;13.60;80.80;;;;;;5022702;28;19920;-86
2023/05/21 02:12:27;;;;;;;;;;;13.60;80.90;;;;;;5020477;28;19917;-86
2023/05/21 02:14:53;;;;;;;;;;;13.60;81.00;;;;;;5044854;28;19910;-86
2023/05/21 02:17:18;;;;;;;;;;;13.60;80.90;;;;;;5022807;28;19923;-85
2023/05/21 02:19:44;;;;;;;;;;;13.60;80.80;;;;;;5021885;28;19909;-85
2023/05/21 02:22:10;;;;;;;;;;;13.60;80.50;;;;;;5043421;28;19925;-85
2023/05/21 02:24:35;;;;;;;;;;;13.60;80.80;;;;;;5025280;28;20334;-86
2023/05/21 02:27:01;;;;;;;;;;;13.50;81.10;;;;;;5028400;28;19917;-85
2023/05/21 02:29:27;;;;;;;;;;;13.50;81.30;;;;;;5030184;28;19919;-85
2023/05/21 02:31:53;;;;;;;;;;;13.50;81.60;;;;;;5035780;28;20000;-85
2023/05/21 02:34:19;;;;;;;;;;;13.50;81.40;;;;;;5044528;28;20445;-85
2023/05/21 02:36:47;;;;;;;;;;;13.50;81.50;;;;;;5026107;28;19944;-85
2023/05/21 02:39:14;;;;;;;;;;;13.50;81.30;;;;;;5042587;28;19915;-86
2023/05/21 02:41:39;;;;;;;;;;;13.50;81.40;;;;;;5025172;28;19913;-86
2023/05/21 02:44:05;;;;;;;;;;;13.50;81.40;;;;;;5025892;28;20061;-85
2023/05/21 02:46:30;;;;;;;;;;;13.40;81.50;;;;;;5041608;28;19921;-85
2023/05/21 02:48:56;;;;;;;;;;;13.50;81.70;;;;;;5043608;28;19988;-85
2023/05/21 02:51:21;;;;;;;;;;;13.40;81.60;;;;;;5030218;28;19915;-85
2023/05/21 02:53:47;;;;;;;;;;;13.30;81.70;;;;;;5036882;28;19909;-85
2023/05/21 02:56:12;;;;;;;;;;;13.30;81.80;;;;;;5042678;28;20350;-85
2023/05/21 02:58:37;;;;;;;;;;;13.30;81.90;;;;;;5043352;28;19940;-85
2023/05/21 03:01:03;;;;;;;;;;;13.30;82.10;;;;;;5035241;28;19932;-85
2023/05/21 03:03:28;;;;;;;;;;;13.20;82.10;;;;;;5034524;28;19999;-85
2023/05/21 03:05:54;;;;;;;;;;;13.20;82.10;;;;;;5043014;28;19909;-85
2023/05/21 03:08:20;;;;;;;;;;;13.20;82.10;;;;;;5043063;28;19967;-85
2023/05/21 03:10:46;;;;;;;;;;;13.30;82.00;;;;;;5025157;28;19918;-85
2023/05/21 03:13:11;;;;;;;;;;;13.30;81.90;;;;;;5026173;28;19921;-85
2023/05/21 03:15:37;;;;;;;;;;;13.20;81.80;;;;;;5047540;28;20004;-85
2023/05/21 03:18:03;;;;;;;;;;;13.20;82.30;;;;;;5049054;28;19961;-84
2023/05/21 03:20:28;;;;;;;;;;;13.20;82.60;;;;;;5040682;28;19912;-84
2023/05/21 03:22:54;;;;;;;;;;;13.20;82.60;;;;;;5032065;28;19968;-85
2023/05/21 03:25:20;;;;;;;;;;;13.10;82.60;;;;;;5024814;28;19933;-86
2023/05/21 03:27:46;;;;;;;;;;;13.10;82.60;;;;;;5028840;28;20409;-85
2023/05/21 03:30:12;;;;;;;;;;;13.20;82.30;;;;;;5023182;28;20275;-85
2023/05/21 03:32:37;;;;;;;;;;;13.10;82.60;;;;;;5017780;28;19917;-85
2023/05/21 03:35:03;;;;;;;;;;;13.10;82.60;;;;;;5042757;28;19909;-85
2023/05/21 03:37:29;;;;;;;;;;;13.10;82.70;;;;;;5043785;28;19916;-85
2023/05/21 03:39:55;;;;;;;;;;;13.10;82.50;;;;;;5042957;28;20012;-86
2023/05/21 03:42:20;;;;;;;;;;;13.10;82.60;;;;;;5041985;28;19916;-85
2023/05/21 03:44:46;;;;;;;;;;;13.20;82.60;;;;;;5034969;28;19913;-85
2023/05/21 03:47:11;;;;;;;;;;;13.20;82.50;;;;;;5041445;28;20331;-86
2023/05/21 03:49:37;;;;;;;;;;;13.20;82.50;;;;;;5023193;28;19913;-85
2023/05/21 03:52:02;;;;;;;;;;;13.20;82.40;;;;;;5041567;28;19992;-85
2023/05/21 03:54:27;;;;;;;;;;;13.30;82.50;;;;;;5035073;28;19913;-86
2023/05/21 03:56:53;;;;;;;;;;;13.20;82.70;;;;;;5040973;28;20310;-85
2023/05/21 03:59:18;;;;;;;;;;;13.20;82.60;;;;;;5040131;28;19937;-85
2023/05/21 04:01:44;;;;;;;;;;;13.20;82.60;;;;;;5042297;28;19948;-86
2023/05/21 04:04:10;;;;;;;;;;;13.20;82.90;;;;;;5042278;28;19909;-85
2023/05/21 04:06:35;;;;;;;;;;;13.30;82.30;;;;;;5041578;28;19920;-85
2023/05/21 04:09:01;;;;;;;;;;;13.30;82.40;;;;;;5041359;28;19909;-85
2023/05/21 04:11:26;;;;;;;;;;;13.30;82.40;;;;;;5041657;28;20165;-86
2023/05/21 04:13:52;;;;;;;;;;;13.20;82.50;;;;;;5043483;28;19913;-85
2023/05/21 04:16:17;;;;;;;;;;;13.20;82.60;;;;;;5042019;28;20398;-85
2023/05/21 04:18:43;;;;;;;;;;;13.10;82.90;;;;;;5042176;28;19909;-85
2023/05/21 04:21:09;;;;;;;;;;;13.20;83.00;;;;;;5042239;28;19964;-85
2023/05/21 04:23:35;;;;;;;;;;;13.20;82.90;;;;;;5041930;28;19994;-85
2023/05/21 04:26:01;;;;;;;;;;;13.30;83.00;;;;;;5024466;28;19959;-85
2023/05/21 04:28:27;;;;;;;;;;;13.20;82.80;;;;;;5014679;28;19913;-85
2023/05/21 04:30:55;;;;;;;;;;;13.30;83.00;;;;;;5024089;28;19916;-85
2023/05/21 04:33:21;;;;;;;;;;;13.30;82.90;;;;;;5041549;28;19913;-85
2023/05/21 04:35:48;;;;;;;;;;;13.30;82.80;;;;;;5042712;28;19999;-85
2023/05/21 04:38:18;;;;;;;;;;;13.30;82.90;;;;;;5024685;28;19959;-85
2023/05/21 04:40:45;;;;;;;;;;;13.50;82.20;;;;;;5042235;28;19921;-85
2023/05/21 04:43:10;;;;;;;;;;;13.40;82.50;;;;;;5016586;28;20395;-85
2023/05/21 04:45:36;;;;;;;;;;;13.40;82.60;;;;;;5022372;28;19924;-85
2023/05/21 04:48:02;;;;;;;;;;;13.30;82.80;;;;;;5023888;28;19935;-84
2023/05/21 04:50:29;;;;;;;;;;;13.30;82.90;;;;;;5023704;28;19917;-85
2023/05/21 04:52:55;;;;;;;;;;;13.30;83.00;;;;;;5034926;28;19920;-84
2023/05/21 04:55:21;;;;;;;;;;;13.30;83.20;;;;;;5042143;28;19909;-85
2023/05/21 04:57:47;;;;;;;;;;;13.30;83.20;;;;;;5041500;28;19909;-85
2023/05/21 05:00:12;;;;;;;;;;;13.40;83.10;;;;;;5041154;28;19916;-85
2023/05/21 05:02:38;;;;;;;;;;;13.50;82.70;;;;;;5023198;28;20399;-85
2023/05/21 05:05:03;;;;;;;;;;;13.60;82.30;;;;;;5021105;28;19914;-85
2023/05/21 05:07:29;;;;;;;;;;;13.60;82.40;;;;;;5015317;28;19921;-84
2023/05/21 05:09:54;;;;;;;;;;;13.60;82.60;;;;;;5030412;28;19913;-84
2023/05/21 05:12:20;;;;;;;;;;;13.40;82.80;;;;;;5037079;28;19921;-83
2023/05/21 05:14:45;;;;;;;;;;;13.50;82.80;;;;;;5049053;28;19910;-84
2023/05/21 05:17:13;;;;;;;;;;;13.50;82.70;;;;;;5026357;28;19909;-84
2023/05/21 05:19:39;;;;;;;;;;;13.60;82.80;;;;;;5042923;28;19919;-84
2023/05/21 05:22:05;;;;;;;;;;;13.60;83.00;;;;;;5033465;28;19920;-84
2023/05/21 05:24:31;;;;;;;;;;;13.70;82.70;;;;;;5040837;28;19920;-84
2023/05/21 05:26:56;;;;;;;;;;;13.80;82.40;;;;;;5024397;28;19913;-85
2023/05/21 05:29:22;;;;;;;;;;;13.80;81.90;;;;;;5032319;28;20440;-85
2023/05/21 05:31:47;;;;;;;;;;;13.90;81.60;;;;;;5041668;28;19909;-84
2023/05/21 05:34:13;;;;;;;;;;;14.00;81.40;;;;;;5045635;28;19969;-84
2023/05/21 05:36:38;;;;;;;;;;;14.00;81.80;;;;;;5041133;28;19920;-85
2023/05/21 05:39:04;;;;;;;;;;;14.00;81.50;;;;;;5052322;28;19901;-83
2023/05/21 05:41:29;;;;;;;;;;;14.00;81.60;;;;;;5055053;28;19901;-85
2023/05/21 05:43:55;;;;;;;;;;;14.00;81.70;;;;;;5042415;28;19909;-84
2023/05/21 05:46:20;;;;;;;;;;;14.10;81.50;;;;;;5038853;28;19975;-84
2023/05/21 05:48:46;;;;;;;;;;;14.00;82.00;;;;;;5039303;28;19989;-84
2023/05/21 05:51:11;;;;;;;;;;;14.10;81.30;;;;;;5041408;28;19967;-84
2023/05/21 05:53:37;;;;;;;;;;;14.00;81.70;;;;;;5038397;28;19921;-84
2023/05/21 05:56:03;;;;;;;;;;;14.00;82.40;;;;;;5039316;28;20363;-83
2023/05/21 05:58:28;;;;;;;;;;;13.90;82.30;;;;;;5040726;28;19913;-84
2023/05/21 06:00:54;;;;;;;;;;;14.00;82.60;;;;;;5014402;28;19913;-84
2023/05/21 06:03:19;;;;;;;;;;;14.10;82.30;;;;;;5021112;28;20375;-84
2023/05/21 06:05:45;;;;;;;;;;;14.00;82.50;;;;;;5020600;28;19936;-84
2023/05/21 06:08:10;;;;;;;;;;;14.00;82.70;;;;;;5022416;28;19914;-84
2023/05/21 06:10:36;;;;;;;;;;;14.00;82.90;;;;;;5040394;28;19924;-84
2023/05/21 06:13:01;;;;;;;;;;;14.00;82.80;;;;;;5022377;28;19928;-87
2023/05/21 06:15:27;;;;;;;;;;;14.10;82.70;;;;;;5022869;28;19984;-85
2023/05/21 06:17:52;;;;;;;;;;;14.00;82.70;;;;;;5022026;28;19909;-85
2023/05/21 06:20:18;;;;;;;;;;;14.00;83.10;;;;;;5018645;28;19913;-85
2023/05/21 06:22:43;;;;;;;;;;;14.10;83.10;;;;;;5022276;28;19920;-87
2023/05/21 06:25:10;;;;;;;;;;;14.50;81.60;;;;;;5022234;28;19909;-85
2023/05/21 06:27:36;;;;;;;;;;;14.30;81.90;;;;;;5026677;28;19917;-84
2023/05/21 06:30:01;;;;;;;;;;;14.40;81.90;;;;;;5039220;28;19921;-84
2023/05/21 06:32:27;;;;;;;;;;;14.40;82.00;;;;;;5025590;28;19909;-85
2023/05/21 06:34:52;;;;;;;;;;;14.50;81.40;;;;;;5044013;28;19984;-86
2023/05/21 06:37:19;;;;;;;;;;;14.40;82.30;;;;;;5027186;28;19920;-85
2023/05/21 06:39:44;;;;;;;;;;;14.30;82.40;;;;;;5044014;28;19909;-85
2023/05/21 06:42:10;;;;;;;;;;;14.40;82.40;;;;;;5041244;28;19910;-86
2023/05/21 06:44:35;;;;;;;;;;;14.30;82.20;;;;;;5047026;28;19913;-87
2023/05/21 06:47:01;;;;;;;;;;;14.30;82.50;;;;;;5021743;28;19917;-85
2023/05/21 06:49:26;;;;;;;;;;;14.30;82.50;;;;;;5042056;28;19909;-86
2023/05/21 06:51:51;;;;;;;;;;;14.30;82.60;;;;;;5041294;28;19909;-86
2023/05/21 06:54:17;;;;;;;;;;;14.30;82.50;;;;;;5051071;28;19909;-87
2023/05/21 06:56:42;;;;;;;;;;;14.30;82.90;;;;;;5039348;28;19913;-87
2023/05/21 06:59:08;;;;;;;;;;;14.40;82.70;;;;;;5019135;28;19925;-87
2023/05/21 07:01:33;;;;;;;;;;;14.40;82.90;;;;;;5021639;28;20338;-86
2023/05/21 07:03:59;;;;;;;;;;;14.40;82.50;;;;;;5024663;28;19920;-87
2023/05/21 07:06:25;;;;;;;;;;;14.50;82.20;;;;;;5023018;28;19920;-87
2023/05/21 07:08:50;;;;;;;;;;;14.50;82.30;;;;;;5023406;28;19909;-86
2023/05/21 07:11:16;;;;;;;;;;;14.50;82.30;;;;;;5023947;28;19917;-85
2023/05/21 07:13:41;;;;;;;;;;;14.50;82.30;;;;;;5025193;28;19913;-86
2023/05/21 07:16:06;;;;;;;;;;;14.60;81.80;;;;;;5014402;28;19967;-84
2023/05/21 07:18:32;;;;;;;;;;;14.60;82.20;;;;;;5023360;28;19924;-85
2023/05/21 07:20:58;;;;;;;;;;;14.80;81.90;;;;;;5023035;28;20374;-87
2023/05/21 07:23:23;;;;;;;;;;;14.80;82.00;;;;;;5064664;22;20396;-81
2023/05/21 07:25:49;;;;;;;;;;;15.00;82.00;;;;;;5055249;28;19921;-83
2023/05/21 07:28:14;;;;;;;;;;;15.00;81.70;;;;;;5053385;28;20007;-82
2023/05/21 07:30:40;;;;;;;;;;;15.10;81.90;;;;;;5049815;28;20011;-84
2023/05/21 07:33:05;;;;;;;;;;;15.10;81.90;;;;;;5050398;28;19958;-82
2023/05/21 07:35:31;;;;;;;;;;;15.30;81.40;;;;;;5053278;28;19924;-83
2023/05/21 07:37:56;;;;;;;;;;;15.30;80.40;;;;;;5053426;28;20356;-81
2023/05/21 07:40:24;;;;;;;;;;;15.20;80.90;;;;;;5054517;28;20320;-83
2023/05/21 07:42:50;;;;;;;;;;;15.30;80.80;;;;;;5050612;28;20018;-81
2023/05/21 07:45:16;;;;;;;;;;;15.40;80.90;;;;;;5049635;28;19920;-83
2023/05/21 07:47:43;;;;;;;;;;;15.50;80.60;;;;;;5052075;28;19920;-82
2023/05/21 07:50:09;;;;;;;;;;;15.70;79.60;;;;;;5053052;28;19913;-84
2023/05/21 07:52:35;;;;;;;;;;;15.70;79.80;;;;;;5053014;28;19913;-83
2023/05/21 07:55:01;;;;;;;;;;;15.80;80.00;;;;;;5049625;28;19927;-82
2023/05/21 07:57:27;;;;;;;;;;;15.80;80.00;;;;;;5053441;28;20319;-83
2023/05/21 07:59:52;;;;;;;;;;;16.00;79.70;;;;;;5054816;28;19962;-83
2023/05/21 08:02:17;;;;;;;;;;;16.20;78.50;;;;;;5054167;28;20280;-83
2023/05/21 08:04:43;;;;;;;;;;;16.50;78.30;;;;;;5053108;28;19967;-83
2023/05/21 08:07:09;;;;;;;;;;;16.60;77.30;;;;;;5052444;28;19913;-82
2023/05/21 08:09:35;;;;;;;;;;;16.30;77.70;;;;;;5052527;28;19916;-83
2023/05/21 08:12:00;;;;;;;;;;;16.30;78.70;;;;;;5054901;28;19909;-82
2023/05/21 08:14:26;;;;;;;;;;;16.40;78.80;;;;;;5047152;28;19913;-83
2023/05/21 08:16:51;;;;;;;;;;;16.50;77.70;;;;;;5047791;28;19951;-83
2023/05/21 08:19:17;;;;;;;;;;;16.50;77.20;;;;;;5053808;28;19964;-83
2023/05/21 08:21:42;;;;;;;;;;;16.50;77.60;;;;;;5052661;28;20543;-83
2023/05/21 08:24:08;;;;;;;;;;;16.50;78.10;;;;;;5051582;28;19917;-83
2023/05/21 08:26:34;;;;;;;;;;;16.50;77.70;;;;;;5049639;28;19952;-80
2023/05/21 08:28:59;;;;;;;;;;;16.50;77.80;;;;;;5053738;28;20273;-83
2023/05/21 08:31:25;;;;;;;;;;;16.50;78.50;;;;;;5053813;28;19939;-83
2023/05/21 08:33:51;;;;;;;;;;;16.60;78.30;;;;;;5056202;28;19915;-83
2023/05/21 08:36:17;;;;;;;;;;;16.70;77.70;;;;;;5055846;28;19908;-82
2023/05/21 08:38:42;;;;;;;;;;;16.90;76.90;;;;;;5050689;28;20431;-82
2023/05/21 08:41:08;;;;;;;;;;;16.80;77.10;;;;;;5053890;28;19924;-83
2023/05/21 08:43:35;;;;;;;;;;;17.10;76.00;;;;;;5054456;28;20334;-82
2023/05/21 08:46:04;;;;;;;;;;;17.20;75.70;;;;;;5052578;28;19917;-83
2023/05/21 08:48:29;;;;;;;;;;;17.30;75.90;;;;;;5052133;28;19913;-81
2023/05/21 08:50:55;;;;;;;;;;;17.30;76.60;;;;;;5054096;28;19909;-82
2023/05/21 08:53:22;;;;;;;;;;;17.30;76.70;;;;;;5054383;28;20008;-83
2023/05/21 08:55:49;;;;;;;;;;;17.30;77.10;;;;;;5049161;28;19995;-83
2023/05/21 08:58:14;;;;;;;;;;;17.40;76.40;;;;;;5054851;28;19936;-81
2023/05/21 09:00:40;;;;;;;;;;;17.40;76.20;;;;;;5053882;28;19913;-83
2023/05/21 09:03:14;;;;;;;;;;;17.50;75.80;;;;;;5054115;28;19920;-83
2023/05/21 09:05:43;;;;;;;;;;;17.50;76.90;;;;;;5054098;28;19908;-82
2023/05/21 09:08:13;;;;;;;;;;;17.70;74.90;;;;;;5054514;28;19935;-82
2023/05/21 09:10:48;;;;;;;;;;;17.90;74.60;;;;;;5051282;28;21324;-83
2023/05/21 09:13:14;;;;;;;;;;;17.90;74.70;;;;;;5052847;28;19909;-82
2023/05/21 09:15:40;;;;;;;;;;;17.90;73.50;;;;;;5053632;28;19918;-82
2023/05/21 09:18:06;;;;;;;;;;;18.00;73.90;;;;;;5055296;28;19960;-82
2023/05/21 09:20:34;;;;;;;;;;;18.00;74.00;;;;;;5056308;28;19916;-83
2023/05/21 09:23:03;;;;;;;;;;;17.80;74.10;;;;;;5054175;28;19916;-81
2023/05/21 09:25:29;;;;;;;;;;;17.90;75.90;;;;;;5063173;28;20000;-82
2023/05/21 09:27:58;;;;;;;;;;;18.00;73.70;;;;;;5056140;28;19927;-82
2023/05/21 09:30:24;;;;;;;;;;;17.90;74.30;;;;;;5052692;28;19959;-82
2023/05/21 09:32:55;;;;;;;;;;;17.90;74.70;;;;;;5056708;28;19917;-82
2023/05/21 09:35:23;;;;;;;;;;;17.90;74.50;;;;;;5056630;28;19913;-83
2023/05/21 09:37:49;;;;;;;;;;;18.00;74.70;;;;;;5055738;28;20031;-82
2023/05/21 09:40:15;;;;;;;;;;;18.10;74.40;;;;;;5058667;28;19916;-83
2023/05/21 09:42:45;;;;;;;;;;;18.30;72.70;;;;;;5052840;28;19917;-83
2023/05/21 09:45:11;;;;;;;;;;;18.30;72.60;;;;;;5055850;28;19944;-82
2023/05/21 09:47:42;;;;;;;;;;;18.30;73.10;;;;;;5054468;28;19923;-82
2023/05/21 09:50:08;;;;;;;;;;;18.50;72.90;;;;;;5055247;28;19908;-82
2023/05/21 09:52:37;;;;;;;;;;;18.50;72.90;;;;;;5053199;28;19913;-83
2023/05/21 09:55:04;;;;;;;;;;;18.70;71.90;;;;;;5051715;28;19913;-82
2023/05/21 09:57:29;;;;;;;;;;;18.70;72.50;;;;;;5053438;28;19913;-82
2023/05/21 09:59:55;;;;;;;;;;;18.70;72.60;;;;;;5055698;28;20000;-82
2023/05/21 10:02:21;;;;;;;;;;;18.80;71.70;;;;;;5058491;28;19913;-82
2023/05/21 10:04:47;;;;;;;;;;;18.90;71.60;;;;;;5058134;28;20276;-83
2023/05/21 10:07:25;;;;;;;;;;;19.00;71.70;;;;;;5055583;28;19944;-82
2023/05/21 10:09:57;;;;;;;;;;;19.00;71.60;;;;;;5057443;28;19943;-82
2023/05/21 10:12:26;;;;;;;;;;;19.00;72.20;;;;;;5057944;28;19935;-83
2023/05/21 10:14:58;;;;;;;;;;;19.20;71.50;;;;;;5057587;28;19913;-82
2023/05/21 10:17:24;;;;;;;;;;;19.50;70.60;;;;;;5057912;28;19920;-82
2023/05/21 10:19:51;;;;;;;;;;;19.60;69.90;;;;;;5057431;28;19913;-82
2023/05/21 10:22:17;;;;;;;;;;;19.60;69.60;;;;;;5056494;28;20000;-83
2023/05/21 10:24:43;;;;;;;;;;;19.70;69.20;;;;;;5054914;28;20415;-82
2023/05/21 10:27:09;;;;;;;;;;;19.70;69.10;;;;;;5058948;28;19961;-83
2023/05/21 10:29:36;;;;;;;;;;;19.60;70.30;;;;;;5056834;28;19909;-82
2023/05/21 10:32:02;;;;;;;;;;;19.70;69.10;;;;;;5055585;28;19959;-83
2023/05/21 10:34:28;;;;;;;;;;;19.60;70.90;;;;;;5058753;28;20587;-82
2023/05/21 10:36:56;;;;;;;;;;;19.60;70.30;;;;;;5058916;28;19913;-83
2023/05/21 10:39:22;;;;;;;;;;;19.40;70.90;;;;;;5056739;28;20299;-81
2023/05/21 10:42:00;;;;;;;;;;;19.50;71.40;;;;;;5053296;28;19935;-83
2023/05/21 10:44:44;;;;;;;;;;;19.50;71.70;;;;;;5049540;28;19916;-84
2023/05/21 10:47:39;;;;;;;;;;;19.40;71.00;;;;;;5056496;28;19917;-83
2023/05/21 10:50:20;;;;;;;;;;;19.40;72.60;;;;;;5057025;28;20471;-82
2023/05/21 10:52:45;;;;;;;;;;;19.60;72.90;;;;;;5053828;28;19925;-82
2023/05/21 10:55:43;;;;;;;;;;;19.90;71.20;;;;;;5056254;28;20031;-83
2023/05/21 10:58:15;;;;;;;;;;;19.70;70.90;;;;;;5001362;28;19975;-81
2023/05/21 11:00:42;;;;;;;;;;;19.70;71.30;;;;;;5059144;28;19916;-80
2023/05/21 11:03:10;;;;;;;;;;;19.60;70.50;;;;;;5066710;28;19916;-80
2023/05/21 11:05:40;;;;;;;;;;;19.90;69.70;;;;;;5069552;28;19976;-81
2023/05/21 11:08:17;;;;;;;;;;;19.80;70.70;;;;;;5070572;28;19939;-82
2023/05/21 11:10:44;;;;;;;;;;;19.90;70.70;;;;;;5062214;28;19909;-82
2023/05/21 11:13:13;;;;;;;;;;;20.10;71.40;;;;;;5049418;28;19908;-80
2023/05/21 11:15:57;;;;;;;;;;;20.20;69.30;;;;;;5053651;28;19920;-81
2023/05/21 11:18:23;;;;;;;;;;;20.10;70.20;;;;;;5050654;28;19913;-80
2023/05/21 11:20:51;;;;;;;;;;;20.20;69.40;;;;;;5057739;28;20016;-83
2023/05/21 11:23:17;;;;;;;;;;;20.30;69.60;;;;;;5056917;28;19982;-82
2023/05/21 11:25:43;;;;;;;;;;;20.50;68.80;;;;;;5057486;28;20507;-85
2023/05/21 11:28:08;;;;;;;;;;;20.50;69.20;;;;;;5058965;28;19913;-85
2023/05/21 11:30:34;;;;;;;;;;;20.50;69.30;;;;;;5057001;28;19947;-82
2023/05/21 11:33:12;;;;;;;;;;;20.40;70.30;;;;;;5060236;28;19908;-84
2023/05/21 11:35:54;;;;;;;;;;;20.40;70.80;;;;;;5058326;28;19983;-84
2023/05/21 11:38:20;;;;;;;;;;;20.50;69.50;;;;;;5046683;28;19936;-85
2023/05/21 11:41:02;;;;;;;;;;;20.50;69.80;;;;;;5054023;28;20407;-85
2023/05/21 11:43:27;;;;;;;;;;;20.60;69.60;;;;;;5049419;28;19916;-84
2023/05/21 11:45:53;;;;;;;;;;;20.60;68.90;;;;;;5054346;28;20275;-86
2023/05/21 11:48:20;;;;;;;;;;;20.80;68.00;;;;;;5054098;28;19913;-84
2023/05/21 11:50:46;;;;;;;;;;;20.80;68.40;;;;;;5054085;28;20012;-82
2023/05/21 11:53:11;;;;;;;;;;;20.90;68.20;;;;;;5053783;28;19948;-85
2023/05/21 11:55:38;;;;;;;;;;;21.00;68.20;;;;;;5051940;28;19925;-84
2023/05/21 12:00:54;;;;;;;;;;;21.10;68.90;;;;;;5105535;22;19931;-80
2023/05/21 12:03:25;;;;;;;;;;;21.20;67.70;;;;;;5062824;28;19952;-81
2023/05/21 12:05:51;;;;;;;;;;;21.40;67.20;;;;;;5049229;28;19944;-81
2023/05/21 12:08:25;;;;;;;;;;;21.30;67.00;;;;;;5056295;28;19923;-81
2023/05/21 12:10:57;;;;;;;;;;;21.40;67.60;;;;;;5033640;28;19913;-81
2023/05/21 12:13:24;;;;;;;;;;;21.50;67.40;;;;;;5032432;28;19913;-80
2023/05/21 12:15:51;;;;;;;;;;;21.40;67.40;;;;;;5038659;28;19910;-81
2023/05/21 12:18:16;;;;;;;;;;;21.30;67.00;;;;;;5038945;28;19977;-81
2023/05/21 12:20:42;;;;;;;;;;;21.20;68.30;;;;;;5037822;28;19961;-80
2023/05/21 12:23:07;;;;;;;;;;;21.40;67.80;;;;;;5035176;28;20003;-80
2023/05/21 12:25:33;;;;;;;;;;;21.40;67.40;;;;;;5037588;28;19913;-81
2023/05/21 12:28:00;;;;;;;;;;;21.40;68.60;;;;;;5026383;28;19924;-81
2023/05/21 12:30:27;;;;;;;;;;;21.50;68.00;;;;;;5040580;28;19920;-82
2023/05/21 12:32:52;;;;;;;;;;;21.60;68.10;;;;;;5042318;28;20361;-81
2023/05/21 12:35:21;;;;;;;;;;;21.90;67.10;;;;;;5040982;28;19920;-81
2023/05/21 12:37:47;;;;;;;;;;;21.80;68.20;;;;;;5042123;28;19917;-81
2023/05/21 12:40:12;;;;;;;;;;;21.70;67.50;;;;;;5041166;28;19913;-82
2023/05/21 12:42:38;;;;;;;;;;;21.80;66.40;;;;;;5039562;28;19913;-81
2023/05/21 12:45:07;;;;;;;;;;;21.90;66.80;;;;;;5036050;28;19924;-81
2023/05/21 12:47:33;;;;;;;;;;;21.80;67.80;;;;;;5051895;28;19939;-81
2023/05/21 12:50:00;;;;;;;;;;;21.90;66.00;;;;;;5056230;28;19913;-81
2023/05/21 12:52:26;;;;;;;;;;;21.90;66.20;;;;;;5045215;28;19940;-81
2023/05/21 12:54:53;;;;;;;;;;;21.90;68.10;;;;;;5054405;28;19925;-82
2023/05/21 12:57:22;;;;;;;;;;;21.70;68.50;;;;;;5042680;28;19917;-80
2023/05/21 12:59:52;;;;;;;;;;;21.80;67.50;;;;;;5050787;28;19949;-81
2023/05/21 13:02:18;;;;;;;;;;;21.80;66.60;;;;;;5056100;28;19924;-81
2023/05/21 13:04:44;;;;;;;;;;;21.90;67.00;;;;;;5055156;28;19913;-81
2023/05/21 13:07:09;;;;;;;;;;;22.10;66.90;;;;;;5054587;28;19925;-81
2023/05/21 13:09:35;;;;;;;;;;;22.20;66.90;;;;;;5055013;28;19917;-83
2023/05/21 13:12:00;;;;;;;;;;;22.30;67.70;;;;;;5048200;28;20506;-81
2023/05/21 13:14:26;;;;;;;;;;;22.10;67.00;;;;;;5052954;28;19924;-81
2023/05/21 13:16:51;;;;;;;;;;;22.40;65.80;;;;;;5049142;28;20287;-81
2023/05/21 13:19:17;;;;;;;;;;;22.30;66.20;;;;;;5048524;28;19972;-81
2023/05/21 13:21:42;;;;;;;;;;;22.20;68.30;;;;;;5054320;28;19923;-81
2023/05/21 13:24:08;;;;;;;;;;;22.30;67.00;;;;;;5038104;28;20147;-80
2023/05/21 13:26:33;;;;;;;;;;;22.30;67.70;;;;;;5040691;28;19917;-80
2023/05/21 13:28:59;;;;;;;;;;;22.30;66.10;;;;;;5049611;28;19948;-81
2023/05/21 13:31:24;;;;;;;;;;;22.40;66.90;;;;;;5047556;28;20340;-82
2023/05/21 13:33:50;;;;;;;;;;;22.20;68.40;;;;;;5051830;28;19953;-80
2023/05/21 13:36:15;;;;;;;;;;;22.20;67.90;;;;;;5049426;28;19921;-81
2023/05/21 13:38:41;;;;;;;;;;;22.20;67.80;;;;;;5051250;28;19965;-80
2023/05/21 13:41:06;;;;;;;;;;;22.30;69.10;;;;;;5050704;28;19912;-80
2023/05/21 13:43:32;;;;;;;;;;;22.30;66.10;;;;;;5054925;28;19912;-82
2023/05/21 13:45:57;;;;;;;;;;;22.30;66.10;;;;;;5056239;28;19923;-81
2023/05/21 13:48:23;;;;;;;;;;;22.20;66.00;;;;;;5050753;28;19917;-80
2023/05/21 13:50:48;;;;;;;;;;;22.30;67.40;;;;;;5054007;28;19928;-80
2023/05/21 13:53:13;;;;;;;;;;;22.30;66.20;;;;;;5046314;28;19932;-81
2023/05/21 13:55:39;;;;;;;;;;;22.10;67.80;;;;;;5052255;28;20452;-80
2023/05/21 13:58:04;;;;;;;;;;;22.10;66.40;;;;;;5058937;28;20342;-80
2023/05/21 14:00:30;;;;;;;;;;;22.10;68.40;;;;;;5059767;28;19932;-81
2023/05/21 14:02:55;;;;;;;;;;;22.10;66.60;;;;;;5055498;28;19913;-82
2023/05/21 14:05:21;;;;;;;;;;;22.00;68.20;;;;;;5058677;28;19971;-81
2023/05/21 14:07:47;;;;;;;;;;;22.00;68.10;;;;;;5047922;28;19917;-81
2023/05/21 14:10:13;;;;;;;;;;;22.00;68.10;;;;;;5052598;28;19932;-80
2023/05/21 14:12:39;;;;;;;;;;;22.10;67.90;;;;;;5062480;28;20091;-81
2023/05/21 14:15:05;;;;;;;;;;;22.20;66.40;;;;;;5049436;28;19944;-81